Pelican — WDC4616 — position and weather

sailwx.info

Track history (hours):
 
Tides and Currents Weather Stations Pressure Air Temp Water Temp Dewpoint Dewpoint Depression Visibility Wind Speed Wind Dir Waves Ship Positions

Pelican

Owner: Scherba Jr., Stephen, Seattle, WA. More information available from US FCC via Universal Licensing System and Coast Guard Vessel Documentation Center.

Last reported at 2016-Jul-29 00:31 UTC. Time now 2016-Jul-29 21:44 UTC.
Position N 47°41' W 122°24'.

Length 16 m; draft 1.6 m.

Type: Pleasure craft. MMSI: 367027560.

Date/timePositionNaut miles runAvg speedWind from/ knotsBaromVisibWave heightAir tempDewpointWater temp
2016-Jul-29 00:31N 47°41' W 122°24'1 0.4
2016-Jul-28 21:33N 47°42' W 122°25'8 7.5
2016-Jul-28 20:33N 47°49' W 122°28'9 8.5
2016-Jul-28 19:28N 47°57' W 122°35'34 8.6
2016-Jul-28 15:33N 48°19' W 123°14'8 8.3
2016-Jul-28 14:33N 48°24' W 123°23'  
2016-Jul-25 19:07N 48°25' W 123°23'3 6.1
2016-Jul-25 18:33N 48°23' W 123°26'24 6.9
2016-Jul-25 15:07N 48°23' W 124°02'5 9.5
2016-Jul-25 14:33N 48°25' W 124°09'9 9.4
2016-Jul-25 13:33N 48°29' W 124°22'5 5.2
2016-Jul-25 12:33N 48°33' W 124°25'0 0.0
2016-Jul-25 02:21N 48°33' W 124°25'0 0.0
2016-Jul-25 01:33N 48°33' W 124°25'0 0.0
2016-Jul-25 00:33N 48°33' W 124°25'0 0.0
2016-Jul-24 23:33N 48°33' W 124°25'0 0.0
2016-Jul-24 22:33N 48°33' W 124°25'0 0.0
2016-Jul-24 21:33N 48°33' W 124°25'0 0.0
2016-Jul-24 20:30N 48°33' W 124°25'0 0.0
2016-Jul-24 19:30N 48°33' W 124°25'0 0.0
2016-Jul-24 18:28N 48°33' W 124°25'2 2.5
2016-Jul-24 17:33N 48°32' W 124°28'5 5.1
2016-Jul-24 16:33N 48°32' W 124°36'8 8.1
2016-Jul-24 15:33N 48°35' W 124°47'9 8.6
2016-Jul-24 14:31N 48°40' W 124°59'12 0.3
2016-Jul-22 21:21N 48°50' W 125°08'6 7.9
2016-Jul-22 20:32N 48°53' W 125°17'8 8.4
2016-Jul-22 19:33N 48°55' W 125°29'3 3.2
2016-Jul-22 18:33N 48°57' W 125°33'0 0.0
2016-Jul-22 17:33N 48°57' W 125°33'0 0.0
2016-Jul-22 16:33N 48°57' W 125°33'0 0.0
2016-Jul-22 15:33N 48°57' W 125°33'0 0.0
2016-Jul-21 00:31N 48°57' W 125°33'0 0.0
2016-Jul-20 23:31N 48°57' W 125°33'0 0.0
2016-Jul-19 20:34N 48°57' W 125°33'1 0.2
2016-Jul-19 18:07N 48°56' W 125°33'3 6.2
2016-Jul-19 17:33N 48°55' W 125°28'  
Track history (hours):
 
Tides and Currents Weather Stations Pressure Air Temp Water Temp Dewpoint Dewpoint Depression Visibility Wind Speed Wind Dir Waves Ship Positions

Pelican

Owner: Scherba Jr., Stephen, Seattle, WA. More information available from US FCC via Universal Licensing System and Coast Guard Vessel Documentation Center.

Last reported at 2016-Jul-29 00:31 UTC. Time now 2016-Jul-29 21:44 UTC.
Position N 47°41' W 122°24'.

Length 16 m; draft 1.6 m.

Type: Pleasure craft. MMSI: 367027560.

Date/timePositionNaut miles runAvg speedWind from/ knotsBaromVisibWave heightAir tempDewpointWater temp
2016-Jul-29 00:31N 47°41' W 122°24'1 0.4
2016-Jul-28 21:33N 47°42' W 122°25'8 7.5
2016-Jul-28 20:33N 47°49' W 122°28'9 8.5
2016-Jul-28 19:28N 47°57' W 122°35'34 8.6
2016-Jul-28 15:33N 48°19' W 123°14'8 8.3
2016-Jul-28 14:33N 48°24' W 123°23'  
2016-Jul-25 19:07N 48°25' W 123°23'3 6.1
2016-Jul-25 18:33N 48°23' W 123°26'24 6.9
2016-Jul-25 15:07N 48°23' W 124°02'5 9.5
2016-Jul-25 14:33N 48°25' W 124°09'9 9.4
2016-Jul-25 13:33N 48°29' W 124°22'5 5.2
2016-Jul-25 12:33N 48°33' W 124°25'0 0.0
2016-Jul-25 02:21N 48°33' W 124°25'0 0.0
2016-Jul-25 01:33N 48°33' W 124°25'0 0.0
2016-Jul-25 00:33N 48°33' W 124°25'0 0.0
2016-Jul-24 23:33N 48°33' W 124°25'0 0.0
2016-Jul-24 22:33N 48°33' W 124°25'0 0.0
2016-Jul-24 21:33N 48°33' W 124°25'0 0.0
2016-Jul-24 20:30N 48°33' W 124°25'0 0.0
2016-Jul-24 19:30N 48°33' W 124°25'0 0.0
2016-Jul-24 18:28N 48°33' W 124°25'2 2.5
2016-Jul-24 17:33N 48°32' W 124°28'5 5.1
2016-Jul-24 16:33N 48°32' W 124°36'8 8.1
2016-Jul-24 15:33N 48°35' W 124°47'9 8.6
2016-Jul-24 14:31N 48°40' W 124°59'12 0.3
2016-Jul-22 21:21N 48°50' W 125°08'6 7.9
2016-Jul-22 20:32N 48°53' W 125°17'8 8.4
2016-Jul-22 19:33N 48°55' W 125°29'3 3.2
2016-Jul-22 18:33N 48°57' W 125°33'0 0.0
2016-Jul-22 17:33N 48°57' W 125°33'0 0.0
2016-Jul-22 16:33N 48°57' W 125°33'0 0.0
2016-Jul-22 15:33N 48°57' W 125°33'0 0.0
2016-Jul-21 00:31N 48°57' W 125°33'0 0.0
2016-Jul-20 23:31N 48°57' W 125°33'0 0.0
2016-Jul-19 20:34N 48°57' W 125°33'1 0.2
2016-Jul-19 18:07N 48°56' W 125°33'3 6.2
2016-Jul-19 17:33N 48°55' W 125°28'  

Dump ship's entire track history